Time;durP1;ratioP1;P1;durP2;ratioP2;P2;SDS_P1;SDS_P2;PMS_P1;PMS_P2;Temp;Humidity;BMP_temperature;BMP_pressure;BME280_temperature;BME280_humidity;BME280_pressure;Samples;Min_cycle;Max_cycle;Signal;HPM_P1;HPM_P2
2022/06/20 00:01:48;;;;;;;15.63;8.07;;;23.50;99.90;;;;;;5015319;28;20844;-81
2022/06/20 00:04:18;;;;;;;9.67;8.53;;;23.60;99.90;;;;;;5015678;28;20622;-81
2022/06/20 00:06:45;;;;;;;17.23;9.60;;;23.50;99.90;;;;;;5009676;28;20632;-81
2022/06/20 00:09:12;;;;;;;13.93;7.67;;;23.50;99.90;;;;;;5015876;28;20663;-81
2022/06/20 00:11:42;;;;;;;10.23;7.23;;;23.40;99.90;;;;;;5013381;28;20635;-81
2022/06/20 00:14:15;;;;;;;15.83;8.30;;;23.40;99.90;;;;;;5014059;28;20662;-81
2022/06/20 00:16:42;;;;;;;13.13;9.03;;;23.30;99.90;;;;;;5016340;28;20615;-81
2022/06/20 00:19:10;;;;;;;7.93;7.23;;;23.30;99.90;;;;;;5013524;28;20627;-81
2022/06/20 00:21:39;;;;;;;11.57;7.80;;;23.40;99.90;;;;;;5016429;28;20729;-81
2022/06/20 00:24:06;;;;;;;10.77;8.40;;;23.50;99.90;;;;;;5015452;28;21424;-81
2022/06/20 00:26:34;;;;;;;12.10;8.53;;;23.60;99.90;;;;;;5014770;28;20643;-81
2022/06/20 00:29:02;;;;;;;7.80;6.80;;;23.60;99.90;;;;;;5001570;28;20993;-81
2022/06/20 00:31:31;;;;;;;9.20;8.30;;;23.70;99.90;;;;;;5006827;28;20654;-82
2022/06/20 00:33:58;;;;;;;12.50;7.63;;;23.60;99.90;;;;;;5009699;28;20674;-81
2022/06/20 00:36:24;;;;;;;9.73;7.57;;;23.70;99.90;;;;;;5011372;28;20639;-81
2022/06/20 00:38:54;;;;;;;8.50;7.57;;;23.60;99.90;;;;;;5005179;28;20671;-81
2022/06/20 00:41:24;;;;;;;11.80;8.90;;;23.60;99.90;;;;;;5012805;28;20647;-81
2022/06/20 00:43:54;;;;;;;10.73;8.40;;;23.50;99.90;;;;;;5009732;28;20657;-81
2022/06/20 00:46:32;;;;;;;17.17;7.93;;;23.40;99.90;;;;;;5014591;28;20627;-81
2022/06/20 00:49:15;;;;;;;10.83;8.83;;;23.30;99.90;;;;;;5014630;28;20627;-81
2022/06/20 00:51:48;;;;;;;14.10;8.63;;;23.30;99.90;;;;;;5007703;28;20612;-81
2022/06/20 00:54:22;;;;;;;14.20;8.33;;;23.20;99.90;;;;;;5013828;28;20647;-81
2022/06/20 00:56:54;;;;;;;14.00;8.27;;;23.10;99.90;;;;;;5003382;28;20677;-81
2022/06/20 00:59:26;;;;;;;12.53;8.70;;;23.20;99.90;;;;;;5011380;28;20991;-81
2022/06/20 01:01:55;;;;;;;9.20;8.27;;;23.30;99.90;;;;;;5015707;28;20629;-81
2022/06/20 01:04:32;;;;;;;13.73;8.47;;;23.30;99.90;;;;;;5017307;28;20635;-81
2022/06/20 01:07:01;;;;;;;9.47;7.30;;;23.20;99.90;;;;;;5014893;28;20698;-81
2022/06/20 01:09:34;;;;;;;18.33;9.13;;;23.10;99.90;;;;;;5015381;28;20636;-81
2022/06/20 01:12:02;;;;;;;10.13;8.60;;;23.10;99.90;;;;;;5014982;28;21077;-81
2022/06/20 01:14:33;;;;;;;14.20;8.43;;;23.20;99.90;;;;;;5014522;28;20658;-81
2022/06/20 01:17:03;;;;;;;15.13;10.03;;;23.30;99.90;;;;;;5015403;28;20696;-81
2022/06/20 01:19:45;;;;;;;13.63;9.60;;;23.30;99.90;;;;;;5014645;28;20651;-81
2022/06/20 01:22:33;;;;;;;10.63;9.30;;;23.20;99.90;;;;;;5006991;28;21190;-86
2022/06/20 01:25:12;;;;;;;11.87;8.10;;;23.20;99.90;;;;;;5014034;28;21451;-83
2022/06/20 01:27:43;;;;;;;10.60;7.90;;;23.30;99.90;;;;;;5013043;28;20610;-82
2022/06/20 01:30:11;;;;;;;10.43;8.37;;;23.40;99.90;;;;;;5011980;28;20650;-81
2022/06/20 01:32:38;;;;;;;12.00;7.23;;;23.50;99.90;;;;;;5010650;28;20638;-80
2022/06/20 01:35:10;;;;;;;17.63;9.20;;;23.60;99.90;;;;;;5014336;28;20659;-80
2022/06/20 01:37:41;;;;;;;18.30;9.23;;;23.60;99.90;;;;;;5015776;28;20730;-81
2022/06/20 01:40:10;;;;;;;11.70;8.30;;;23.70;99.90;;;;;;5014039;28;20724;-81
2022/06/20 01:42:38;;;;;;;10.80;8.60;;;23.80;99.90;;;;;;5016931;28;21494;-83
2022/06/20 01:45:57;;;;;;;12.83;8.93;;;23.80;99.90;;;;;;5011646;28;20634;-83
2022/06/20 01:48:03;;;;;;;17.47;9.57;;;23.90;99.90;;;;;;5013534;28;20619;-82
2022/06/20 01:50:31;;;;;;;12.27;8.60;;;23.90;99.90;;;;;;5002030;28;21309;-83
2022/06/20 01:53:02;;;;;;;12.63;9.07;;;23.90;99.90;;;;;;5006876;28;20623;-83
2022/06/20 01:55:30;;;;;;;9.30;8.40;;;23.90;99.90;;;;;;5016847;28;20674;-83
2022/06/20 01:58:06;;;;;;;9.27;8.37;;;24.00;99.90;;;;;;5016735;28;20667;-83
2022/06/20 02:00:35;;;;;;;14.80;9.03;;;24.00;99.90;;;;;;5019971;28;20654;-83
2022/06/20 02:03:07;;;;;;;7.97;7.17;;;24.00;99.90;;;;;;5013783;28;20623;-83
2022/06/20 02:05:35;;;;;;;10.00;8.47;;;24.00;99.90;;;;;;5018879;28;20676;-83
2022/06/20 02:08:05;;;;;;;8.93;8.03;;;24.00;99.90;;;;;;5019328;28;20620;-83
2022/06/20 02:10:38;;;;;;;12.20;7.80;;;24.10;99.90;;;;;;5020777;28;20663;-83
2022/06/20 02:13:05;;;;;;;9.50;8.63;;;24.10;99.90;;;;;;5014399;28;21048;-83
2022/06/20 02:15:34;;;;;;;9.33;8.43;;;24.10;99.90;;;;;;5020241;28;20671;-84
2022/06/20 02:18:04;;;;;;;9.23;8.33;;;24.10;99.90;;;;;;5017667;28;20677;-83
2022/06/20 02:20:38;;;;;;;9.87;8.30;;;24.10;99.90;;;;;;5021709;28;20651;-83
2022/06/20 02:23:07;;;;;;;9.70;8.70;;;24.20;99.90;;;;;;5016281;28;20638;-82
2022/06/20 02:25:35;;;;;;;8.13;7.53;;;24.20;99.90;;;;;;5018347;28;20635;-81
2022/06/20 02:28:06;;;;;;;9.40;8.70;;;24.20;99.90;;;;;;5020190;28;20615;-82
2022/06/20 02:30:36;;;;;;;10.50;9.03;;;24.20;99.90;;;;;;5018159;28;21219;-81
2022/06/20 02:33:09;;;;;;;10.77;9.57;;;24.20;99.90;;;;;;5018351;28;20689;-82
2022/06/20 02:35:36;;;;;;;9.80;8.60;;;24.30;99.90;;;;;;5010343;28;20663;-82
2022/06/20 02:38:03;;;;;;;9.40;8.47;;;24.30;99.90;;;;;;5013703;28;20666;-82
2022/06/20 02:40:31;;;;;;;9.60;8.50;;;24.20;99.90;;;;;;5009378;28;21019;-82
2022/06/20 02:43:05;;;;;;;11.67;9.10;;;24.30;99.90;;;;;;5008490;28;20643;-82
2022/06/20 02:45:35;;;;;;;10.93;8.33;;;24.30;99.90;;;;;;5019387;28;20610;-82
2022/06/20 02:48:05;;;;;;;9.83;8.40;;;24.30;99.90;;;;;;5014917;28;20719;-85
2022/06/20 02:50:35;;;;;;;9.33;8.50;;;24.30;99.90;;;;;;5019843;28;20647;-83
2022/06/20 02:53:07;;;;;;;10.63;8.87;;;24.30;99.90;;;;;;5010236;28;21173;-84
2022/06/20 02:55:36;;;;;;;13.47;11.60;;;24.30;99.90;;;;;;5011253;28;20788;-85
2022/06/20 02:58:11;;;;;;;12.40;9.57;;;24.30;99.90;;;;;;5017787;28;20640;-86
2022/06/20 03:00:45;;;;;;;11.03;9.90;;;24.10;99.90;;;;;;5019574;28;20662;-86
2022/06/20 03:03:21;;;;;;;11.70;10.50;;;24.10;99.90;;;;;;5018993;28;20618;-86
2022/06/20 03:05:47;;;;;;;16.67;10.47;;;24.10;99.90;;;;;;5014122;28;20661;-85
2022/06/20 03:08:16;;;;;;;15.27;10.10;;;24.10;99.90;;;;;;5017753;28;20623;-85
2022/06/20 03:10:47;;;;;;;13.03;9.73;;;24.10;99.90;;;;;;5019463;28;20653;-85
2022/06/20 03:13:14;;;;;;;12.53;11.20;;;24.10;99.90;;;;;;5013168;28;20614;-86
2022/06/20 03:15:44;;;;;;;12.57;9.20;;;24.10;99.90;;;;;;5014494;28;20670;-88
2022/06/20 03:18:14;;;;;;;11.20;10.00;;;24.10;99.90;;;;;;5014058;28;20673;-88
2022/06/20 03:20:42;;;;;;;10.63;9.53;;;24.00;99.90;;;;;;5017440;28;21189;-85
2022/06/20 03:23:11;;;;;;;13.13;9.87;;;24.00;99.90;;;;;;5015277;28;20635;-84
2022/06/20 03:25:40;;;;;;;12.33;9.23;;;24.00;99.90;;;;;;5014782;28;20662;-84
2022/06/20 03:28:12;;;;;;;10.20;8.30;;;24.00;99.90;;;;;;5018340;28;20637;-83
2022/06/20 03:30:40;;;;;;;10.13;9.13;;;24.10;99.90;;;;;;5013974;28;20619;-85
2022/06/20 03:33:13;;;;;;;12.97;9.00;;;24.10;99.90;;;;;;5018024;28;21012;-82
2022/06/20 03:35:44;;;;;;;9.53;8.50;;;24.10;99.90;;;;;;5014163;28;20762;-83
2022/06/20 03:38:13;;;;;;;11.57;8.93;;;24.10;99.90;;;;;;5007417;28;20615;-82
2022/06/20 03:40:40;;;;;;;12.43;8.20;;;24.10;99.90;;;;;;5010684;28;20646;-82
2022/06/20 03:43:09;;;;;;;11.23;7.80;;;24.20;99.90;;;;;;5019978;28;20642;-82
2022/06/20 03:45:41;;;;;;;8.40;7.23;;;24.20;99.90;;;;;;5013898;28;21004;-83
2022/06/20 03:48:13;;;;;;;9.83;7.83;;;24.20;99.90;;;;;;5018704;28;20634;-83
2022/06/20 03:50:45;;;;;;;10.67;7.70;;;24.20;99.90;;;;;;5012186;28;20634;-85
2022/06/20 03:53:17;;;;;;;7.03;6.33;;;24.20;99.90;;;;;;5013345;28;21542;-84
2022/06/20 03:55:50;;;;;;;8.73;7.90;;;24.10;99.90;;;;;;5012724;28;21041;-84
2022/06/20 03:58:23;;;;;;;14.37;8.07;;;24.10;99.90;;;;;;5007444;28;20690;-85
2022/06/20 04:00:55;;;;;;;7.27;6.67;;;23.80;99.90;;;;;;5007869;28;21002;-85
2022/06/20 04:03:29;;;;;;;8.93;7.23;;;23.70;99.90;;;;;;5015410;28;20678;-85
2022/06/20 04:06:00;;;;;;;11.00;8.27;;;23.70;99.90;;;;;;5015033;28;21445;-85
2022/06/20 04:11:15;;;;;;;14.17;8.03;;;23.70;99.90;;;;;;5005266;28;20778;-86
2022/06/20 04:13:55;;;;;;;11.93;8.40;;;23.70;99.90;;;;;;5002968;28;20614;-84
2022/06/20 04:16:26;;;;;;;14.87;9.20;;;23.80;99.90;;;;;;5018245;28;20978;-84
2022/06/20 04:19:06;;;;;;;11.80;9.03;;;23.80;99.90;;;;;;5011093;28;20997;-86
2022/06/20 04:21:38;;;;;;;15.23;9.67;;;23.80;99.90;;;;;;5016674;28;20631;-85
2022/06/20 04:24:10;;;;;;;15.40;9.37;;;23.70;99.90;;;;;;5012964;28;20655;-86
2022/06/20 04:26:42;;;;;;;9.80;7.93;;;23.70;99.90;;;;;;5015784;28;20618;-84
2022/06/20 04:29:18;;;;;;;14.67;8.50;;;23.80;99.90;;;;;;5010177;28;20650;-85
2022/06/20 04:31:51;;;;;;;13.60;9.23;;;23.80;99.90;;;;;;5003404;28;20627;-84
2022/06/20 04:34:31;;;;;;;12.90;8.30;;;23.80;99.90;;;;;;5006076;28;20647;-85
2022/06/20 04:37:04;;;;;;;11.73;8.33;;;23.70;99.90;;;;;;5018689;28;21206;-82
2022/06/20 04:39:37;;;;;;;16.20;9.10;;;23.50;99.90;;;;;;5015438;28;20619;-83
2022/06/20 04:42:10;;;;;;;13.73;8.40;;;23.50;99.90;;;;;;5004077;28;20636;-83
2022/06/20 04:44:41;;;;;;;10.83;7.57;;;23.50;99.90;;;;;;5010786;28;20654;-84
2022/06/20 04:47:18;;;;;;;10.43;8.37;;;23.50;99.90;;;;;;5009644;28;20636;-86
2022/06/20 04:49:46;;;;;;;10.00;7.83;;;23.50;99.90;;;;;;5006275;28;20622;-84
2022/06/20 04:52:19;;;;;;;14.00;7.33;;;23.60;99.90;;;;;;5009157;28;20693;-86
2022/06/20 04:54:46;;;;;;;13.70;7.20;;;23.60;99.90;;;;;;5009835;28;20765;-85
2022/06/20 04:57:15;;;;;;;8.77;6.60;;;23.70;99.90;;;;;;5015033;28;20639;-85
2022/06/20 04:59:43;;;;;;;16.87;7.70;;;23.70;99.90;;;;;;5006641;28;20627;-84
2022/06/20 05:02:15;;;;;;;12.90;7.60;;;23.70;99.90;;;;;;5010346;28;20619;-84
2022/06/20 05:04:46;;;;;;;9.20;6.33;;;23.80;99.90;;;;;;5009981;28;21520;-84
2022/06/20 05:07:20;;;;;;;12.37;8.43;;;23.80;99.90;;;;;;5013914;28;20614;-84
2022/06/20 05:09:52;;;;;;;10.27;7.10;;;23.80;99.90;;;;;;5013429;28;20901;-84
2022/06/20 05:12:23;;;;;;;11.70;7.43;;;23.80;99.90;;;;;;5003365;28;20635;-84
2022/06/20 05:14:55;;;;;;;10.50;7.87;;;23.90;99.90;;;;;;5004664;28;20686;-83
2022/06/20 05:17:26;;;;;;;7.57;6.77;;;23.90;99.90;;;;;;5004125;28;20596;-84
2022/06/20 05:19:58;;;;;;;9.80;7.17;;;23.90;99.90;;;;;;5007820;28;20680;-84
2022/06/20 05:22:31;;;;;;;7.77;6.67;;;23.90;99.90;;;;;;5002788;28;20670;-83
2022/06/20 05:25:01;;;;;;;10.97;6.50;;;23.90;99.90;;;;;;5003660;28;21017;-84
2022/06/20 05:27:31;;;;;;;7.13;6.50;;;24.00;99.90;;;;;;5005489;28;20619;-84
2022/06/20 05:30:01;;;;;;;7.67;6.83;;;24.00;99.90;;;;;;5008986;28;20632;-83
2022/06/20 05:32:36;;;;;;;8.60;6.53;;;24.00;99.90;;;;;;5010508;28;20922;-84
2022/06/20 05:35:08;;;;;;;8.50;6.43;;;24.10;99.90;;;;;;5007963;28;20683;-84
2022/06/20 05:37:42;;;;;;;7.93;6.83;;;24.10;99.90;;;;;;5008704;28;20675;-83
2022/06/20 05:40:17;;;;;;;9.63;7.33;;;24.10;99.90;;;;;;5010412;28;20637;-83
2022/06/20 05:42:44;;;;;;;9.80;7.47;;;24.10;99.90;;;;;;5015262;28;21113;-83
2022/06/20 05:45:16;;;;;;;7.20;6.50;;;24.10;99.90;;;;;;5006580;28;20766;-83
2022/06/20 05:47:48;;;;;;;8.20;7.43;;;24.10;99.90;;;;;;5006971;28;21006;-91
2022/06/20 05:50:30;;;;;;;13.07;7.30;;;24.10;99.90;;;;;;5014258;28;20624;-87
2022/06/20 05:53:00;;;;;;;7.87;7.00;;;23.90;99.90;;;;;;5008741;28;21337;-87
2022/06/20 05:55:33;;;;;;;13.10;7.90;;;23.80;99.90;;;;;;5010534;28;20681;-87
2022/06/20 05:58:01;;;;;;;12.47;6.47;;;23.70;99.90;;;;;;5017033;28;20673;-88
2022/06/20 06:00:33;;;;;;;9.93;7.40;;;23.70;99.90;;;;;;5015716;28;20624;-88
2022/06/20 06:03:04;;;;;;;8.10;7.07;;;23.60;99.90;;;;;;5010755;28;20659;-88
2022/06/20 06:05:35;;;;;;;10.73;7.80;;;23.60;99.90;;;;;;5009846;28;20662;-88
2022/06/20 06:08:11;;;;;;;10.87;7.13;;;23.60;99.90;;;;;;5010789;28;20727;-89
2022/06/20 06:10:43;;;;;;;16.87;7.90;;;23.60;99.90;;;;;;5009569;28;20639;-89
2022/06/20 06:13:24;;;;;;;13.97;7.30;;;23.50;99.90;;;;;;5008871;28;20626;-89
2022/06/20 06:18:52;;;;;;;7.97;6.73;;;23.50;99.90;;;;;;5011397;28;20587;-88
2022/06/20 06:21:19;;;;;;;8.67;7.77;;;23.50;99.90;;;;;;5012483;28;21197;-89
2022/06/20 06:23:48;;;;;;;13.53;7.97;;;23.30;99.90;;;;;;5012339;28;20615;-88
2022/06/20 06:26:17;;;;;;;7.90;7.10;;;23.40;99.90;;;;;;5011388;28;20623;-88
2022/06/20 06:28:45;;;;;;;9.97;7.27;;;23.40;99.90;;;;;;5012379;28;20623;-89
2022/06/20 06:31:18;;;;;;;14.27;8.70;;;23.40;99.90;;;;;;5012180;28;20757;-81
2022/06/20 06:33:50;;;;;;;14.57;9.27;;;23.40;99.90;;;;;;5007339;28;20626;-80
2022/06/20 06:36:22;;;;;;;9.23;8.30;;;23.20;99.90;;;;;;5018358;28;20658;-81
2022/06/20 06:38:57;;;;;;;18.10;9.80;;;22.90;99.90;;;;;;5010531;28;20639;-82
2022/06/20 06:41:27;;;;;;;10.90;8.73;;;22.70;99.90;;;;;;5013606;28;20727;-81
2022/06/20 06:43:56;;;;;;;10.37;9.20;;;22.60;99.90;;;;;;5016788;28;20630;-81
2022/06/20 06:46:29;;;;;;;14.37;12.00;;;21.50;99.90;;;;;;5006022;28;20627;-81
2022/06/20 06:49:13;;;;;;;12.57;8.90;;;21.90;99.90;;;;;;5010249;28;20654;-80
2022/06/20 06:51:46;;;;;;;10.90;9.80;;;22.50;99.90;;;;;;5004827;28;21161;-81
2022/06/20 06:54:19;;;;;;;19.70;10.93;;;23.00;99.90;;;;;;5005150;28;20713;-81
2022/06/20 06:56:52;;;;;;;17.00;12.43;;;23.10;99.90;;;;;;5008949;28;20668;-81
2022/06/20 06:59:23;;;;;;;18.70;10.80;;;22.70;99.90;;;;;;5007096;28;20635;-80
2022/06/20 07:01:52;;;;;;;12.10;7.70;;;23.00;99.90;;;;;;5009888;28;20630;-81
2022/06/20 07:04:23;;;;;;;8.80;7.20;;;23.50;99.90;;;;;;5007582;28;20671;-81
2022/06/20 07:06:55;;;;;;;15.00;9.60;;;24.10;99.90;;;;;;5009487;28;20662;-83
2022/06/20 07:09:29;;;;;;;10.67;9.00;;;24.30;99.90;;;;;;5006405;28;20971;-84
2022/06/20 07:12:04;;;;;;;13.93;10.17;;;24.30;99.90;;;;;;5008894;28;20647;-83
2022/06/20 07:14:36;;;;;;;12.57;8.97;;;24.20;99.90;;;;;;5004256;28;20734;-83
2022/06/20 07:17:08;;;;;;;12.50;9.07;;;24.10;99.90;;;;;;5009010;28;20667;-83
2022/06/20 07:19:37;;;;;;;14.23;10.00;;;24.00;99.90;;;;;;5006356;28;20631;-83
2022/06/20 07:22:04;;;;;;;10.73;9.53;;;24.00;99.90;;;;;;5005838;28;21118;-83
2022/06/20 07:24:36;;;;;;;16.53;10.57;;;23.90;99.90;;;;;;5006478;28;20995;-83
2022/06/20 07:27:09;;;;;;;14.73;9.90;;;23.80;99.90;;;;;;5006553;28;20663;-83
2022/06/20 07:29:47;;;;;;;12.63;8.63;;;23.80;99.90;;;;;;5006470;28;20639;-83
2022/06/20 07:32:20;;;;;;;15.37;8.53;;;23.80;99.90;;;;;;5005319;28;20637;-83
2022/06/20 07:34:51;;;;;;;16.70;9.20;;;23.90;99.90;;;;;;5003211;28;20722;-84
2022/06/20 07:37:22;;;;;;;9.93;7.90;;;24.00;99.90;;;;;;5009393;28;21309;-82
2022/06/20 07:39:56;;;;;;;10.27;8.30;;;24.00;99.90;;;;;;5006365;28;20636;-83
2022/06/20 07:42:28;;;;;;;8.33;7.53;;;24.00;99.90;;;;;;5003608;28;20694;-82
2022/06/20 07:44:58;;;;;;;17.00;7.43;;;24.10;99.90;;;;;;5010180;28;21334;-83
2022/06/20 07:47:32;;;;;;;10.00;7.10;;;24.20;99.90;;;;;;5011884;28;20624;-83
2022/06/20 07:50:04;;;;;;;9.37;7.70;;;24.30;99.90;;;;;;5005152;28;20652;-83
2022/06/20 07:52:35;;;;;;;9.40;6.60;;;24.40;99.90;;;;;;5010544;28;20638;-82
2022/06/20 07:55:09;;;;;;;10.73;6.60;;;24.50;99.90;;;;;;5004120;28;20668;-83
2022/06/20 07:57:41;;;;;;;8.97;7.23;;;24.60;99.90;;;;;;5008879;28;20613;-83
2022/06/20 08:00:12;;;;;;;11.30;8.13;;;24.70;99.90;;;;;;5007669;28;21260;-82
2022/06/20 08:02:46;;;;;;;16.03;8.30;;;24.70;99.90;;;;;;5006112;28;20624;-82
2022/06/20 08:05:19;;;;;;;10.93;8.00;;;24.70;99.90;;;;;;5004524;28;20712;-83
2022/06/20 08:07:51;;;;;;;12.13;7.67;;;24.70;99.90;;;;;;5005922;28;20639;-82
2022/06/20 08:10:27;;;;;;;12.23;7.67;;;24.80;99.90;;;;;;5005560;28;20806;-82
2022/06/20 08:13:00;;;;;;;16.60;9.50;;;24.90;99.90;;;;;;5004346;28;20643;-83
2022/06/20 08:15:31;;;;;;;13.00;7.80;;;25.00;99.90;;;;;;5004869;28;21037;-82
2022/06/20 08:17:59;;;;;;;10.27;8.13;;;25.10;99.90;;;;;;5005028;28;21258;-82
2022/06/20 08:20:31;;;;;;;9.63;8.10;;;25.20;99.90;;;;;;5012665;28;20620;-81
2022/06/20 08:23:01;;;;;;;11.93;8.17;;;25.30;99.90;;;;;;5009267;28;20634;-81
2022/06/20 08:25:35;;;;;;;11.57;8.70;;;25.40;99.90;;;;;;5010649;28;21253;-83
2022/06/20 08:28:07;;;;;;;8.27;7.53;;;25.50;99.90;;;;;;5011357;28;20623;-83
2022/06/20 08:30:40;;;;;;;9.80;7.40;;;25.70;99.90;;;;;;5007013;28;20643;-83
2022/06/20 08:33:15;;;;;;;12.40;6.43;;;25.70;99.90;;;;;;5009431;28;20617;-82
2022/06/20 08:35:47;;;;;;;11.73;7.63;;;25.80;99.90;;;;;;5006708;28;21229;-83
2022/06/20 08:38:20;;;;;;;11.97;7.73;;;25.90;99.90;;;;;;5003607;28;20616;-83
2022/06/20 08:41:12;;;;;;;11.60;7.00;;;26.00;99.90;;;;;;5007494;28;21205;-83
2022/06/20 08:44:14;;;;;;;9.60;6.90;;;26.10;99.90;;;;;;5003896;28;20635;-83
2022/06/20 08:47:12;;;;;;;8.17;5.83;;;26.20;99.90;;;;;;5004777;28;20611;-83
2022/06/20 08:50:14;;;;;;;9.50;7.30;;;26.20;99.90;;;;;;5009122;28;20614;-82
2022/06/20 08:53:09;;;;;;;10.97;5.97;;;26.30;99.90;;;;;;5001952;28;20632;-82
2022/06/20 08:56:02;;;;;;;9.27;5.90;;;26.20;99.90;;;;;;5006373;28;20651;-82
2022/06/20 08:58:40;;;;;;;9.30;5.83;;;26.30;99.90;;;;;;5005872;28;20639;-82
2022/06/20 09:01:16;;;;;;;11.80;6.53;;;26.40;99.90;;;;;;5002487;28;20615;-82
2022/06/20 09:04:08;;;;;;;13.63;6.77;;;26.50;99.90;;;;;;5005832;28;20635;-82
2022/06/20 09:06:57;;;;;;;7.07;6.10;;;26.60;99.90;;;;;;5007900;28;20620;-82
2022/06/20 09:09:52;;;;;;;10.60;6.30;;;26.60;99.90;;;;;;5008109;28;20616;-82
2022/06/20 09:12:42;;;;;;;11.53;6.33;;;26.50;99.90;;;;;;5004116;28;20654;-82
2022/06/20 09:15:38;;;;;;;9.80;6.57;;;26.60;99.30;;;;;;5004683;28;21286;-82
2022/06/20 09:18:15;;;;;;;7.00;6.40;;;26.60;99.90;;;;;;5005307;28;20627;-81
2022/06/20 09:20:49;;;;;;;9.40;6.20;;;26.60;98.90;;;;;;5011476;28;20618;-82
2022/06/20 09:23:36;;;;;;;10.13;6.87;;;26.60;98.30;;;;;;5010649;28;20639;-82
2022/06/20 09:26:10;;;;;;;7.83;6.70;;;26.70;98.70;;;;;;5003983;28;20647;-82
2022/06/20 09:29:07;;;;;;;8.53;6.00;;;26.80;99.60;;;;;;5003639;28;20631;-82
2022/06/20 09:32:07;;;;;;;8.07;6.43;;;26.90;99.40;;;;;;4987662;28;20644;-82
2022/06/20 09:34:49;;;;;;;12.27;8.27;;;27.00;98.30;;;;;;5005781;28;20663;-82
2022/06/20 09:37:25;;;;;;;7.57;6.50;;;27.10;98.60;;;;;;5000975;28;20675;-82
2022/06/20 09:40:05;;;;;;;9.33;6.90;;;27.20;97.70;;;;;;5005498;28;20628;-82
2022/06/20 09:42:46;;;;;;;10.40;7.10;;;27.30;98.30;;;;;;5001624;28;20639;-82
2022/06/20 09:45:25;;;;;;;8.87;6.37;;;27.50;97.60;;;;;;4999278;28;20655;-82
2022/06/20 09:48:06;;;;;;;8.80;6.13;;;27.50;96.50;;;;;;5006073;28;20638;-82
2022/06/20 09:50:45;;;;;;;8.93;6.80;;;27.60;96.90;;;;;;5008392;28;20655;-82
2022/06/20 09:53:23;;;;;;;10.50;8.10;;;27.80;96.70;;;;;;5006833;28;20615;-82
2022/06/20 09:55:57;;;;;;;12.03;6.80;;;27.90;97.20;;;;;;5002414;28;20785;-82
2022/06/20 09:58:33;;;;;;;8.03;7.20;;;28.00;96.70;;;;;;4997667;28;20628;-82
2022/06/20 10:01:10;;;;;;;8.37;6.60;;;28.20;97.10;;;;;;5003193;28;20713;-82
2022/06/20 10:03:45;;;;;;;7.57;6.63;;;28.30;96.50;;;;;;5004705;28;20623;-82
2022/06/20 10:06:21;;;;;;;9.13;6.60;;;28.40;95.40;;;;;;5003846;28;21040;-82
2022/06/20 10:08:58;;;;;;;8.03;6.37;;;28.40;95.70;;;;;;5001466;28;20659;-82
2022/06/20 10:11:34;;;;;;;8.97;6.90;;;28.30;95.20;;;;;;5006355;28;21230;-81
2022/06/20 10:14:08;;;;;;;10.07;6.80;;;28.40;96.00;;;;;;5002699;28;20659;-82
2022/06/20 10:16:46;;;;;;;8.10;6.50;;;28.50;94.90;;;;;;5007665;28;20663;-82
2022/06/20 10:19:20;;;;;;;6.60;5.60;;;28.60;94.00;;;;;;5011250;28;20623;-82
2022/06/20 10:21:57;;;;;;;9.20;6.53;;;28.60;93.90;;;;;;5015365;28;20626;-82
2022/06/20 10:24:56;;;;;;;8.40;6.80;;;28.70;94.70;;;;;;5010153;28;21020;-82
2022/06/20 10:27:46;;;;;;;8.70;6.03;;;28.60;94.00;;;;;;5006194;28;20635;-82
2022/06/20 10:30:15;;;;;;;7.30;5.80;;;28.80;94.60;;;;;;5006448;28;20619;-82
2022/06/20 10:32:55;;;;;;;7.77;6.57;;;28.90;95.00;;;;;;5015160;28;20626;-82
2022/06/20 10:35:36;;;;;;;8.17;6.37;;;29.10;94.90;;;;;;5006327;28;20754;-81
2022/06/20 10:38:07;;;;;;;10.47;6.27;;;29.30;92.30;;;;;;5011338;28;20663;-83
2022/06/20 10:40:39;;;;;;;11.07;5.60;;;29.30;91.40;;;;;;5010245;28;20627;-81
2022/06/20 10:43:10;;;;;;;6.30;5.70;;;29.50;91.50;;;;;;5008957;28;20635;-80
2022/06/20 10:45:45;;;;;;;7.90;6.63;;;29.70;91.70;;;;;;5008302;28;20712;-80
2022/06/20 10:48:44;;;;;;;7.37;5.97;;;29.90;91.50;;;;;;5006165;28;20935;-80
2022/06/20 10:51:19;;;;;;;9.63;5.80;;;29.90;91.30;;;;;;5011176;28;21383;-80
2022/06/20 10:53:58;;;;;;;9.13;5.60;;;30.00;91.50;;;;;;5002601;28;20631;-80
2022/06/20 10:56:33;;;;;;;9.13;5.93;;;30.00;91.70;;;;;;5005104;28;20674;-81
2022/06/20 10:59:16;;;;;;;9.43;6.80;;;30.00;92.10;;;;;;5009101;28;20615;-81
2022/06/20 11:01:50;;;;;;;6.47;5.10;;;30.10;91.40;;;;;;5001760;28;21466;-80
2022/06/20 11:04:38;;;;;;;9.03;5.23;;;29.90;90.00;;;;;;5006232;28;21018;-81
2022/06/20 11:07:18;;;;;;;6.90;4.60;;;29.70;88.90;;;;;;5006183;28;20631;-82
2022/06/20 11:09:56;;;;;;;13.53;5.17;;;29.70;88.20;;;;;;4999198;28;20795;-82
2022/06/20 11:12:32;;;;;;;6.13;4.57;;;29.90;87.30;;;;;;5003839;28;21166;-81
2022/06/20 11:15:08;;;;;;;10.20;5.70;;;29.90;86.10;;;;;;5005958;28;20741;-82
2022/06/20 11:17:45;;;;;;;5.90;4.70;;;29.90;86.20;;;;;;5006512;28;21009;-81
2022/06/20 11:20:19;;;;;;;4.80;4.30;;;29.60;85.70;;;;;;5013127;28;20622;-81
2022/06/20 11:22:55;;;;;;;5.77;4.80;;;29.40;85.30;;;;;;5008246;28;20733;-81
2022/06/20 11:25:33;;;;;;;9.70;5.20;;;29.10;85.50;;;;;;5009672;28;20680;-81
2022/06/20 11:28:22;;;;;;;7.87;4.77;;;29.00;86.90;;;;;;5006430;28;20636;-81
2022/06/20 11:30:57;;;;;;;9.50;5.00;;;28.90;88.50;;;;;;4995157;28;20648;-81
2022/06/20 11:34:06;;;;;;;6.83;4.10;;;28.70;88.80;;;;;;5006903;28;20629;-81
2022/06/20 11:36:55;;;;;;;6.60;5.20;;;28.50;88.30;;;;;;5005968;28;20742;-80
2022/06/20 11:39:43;;;;;;;6.87;5.13;;;28.50;89.30;;;;;;5007024;28;20640;-81
2022/06/20 11:42:40;;;;;;;8.73;5.83;;;28.70;89.20;;;;;;5002503;28;20644;-81
2022/06/20 11:45:39;;;;;;;8.73;5.73;;;29.00;89.20;;;;;;5006115;28;21233;-81
2022/06/20 11:48:28;;;;;;;6.47;4.07;;;29.40;89.90;;;;;;5012937;28;20628;-81
2022/06/20 11:51:03;;;;;;;8.53;6.47;;;29.80;87.30;;;;;;5007055;28;20634;-81
2022/06/20 11:53:43;;;;;;;8.00;5.83;;;30.20;86.60;;;;;;5005460;28;20612;-81
2022/06/20 11:56:21;;;;;;;6.37;5.30;;;30.40;86.30;;;;;;5007589;28;20627;-81
2022/06/20 11:59:04;;;;;;;8.40;5.30;;;30.80;84.70;;;;;;5011106;28;20654;-81
2022/06/20 12:01:39;;;;;;;6.03;5.43;;;31.00;84.80;;;;;;5002257;28;21021;-81
2022/06/20 12:04:14;;;;;;;7.03;5.80;;;30.80;83.80;;;;;;5003546;28;20737;-81
2022/06/20 12:06:48;;;;;;;9.77;5.67;;;30.50;84.20;;;;;;5004251;28;20628;-81
2022/06/20 12:09:20;;;;;;;7.07;4.70;;;30.30;84.60;;;;;;5005193;28;20623;-81
2022/06/20 12:12:02;;;;;;;8.03;5.90;;;29.90;84.00;;;;;;5007665;28;21206;-81
2022/06/20 12:14:39;;;;;;;8.47;6.40;;;29.50;83.80;;;;;;5004768;28;20655;-81
2022/06/20 12:17:19;;;;;;;11.23;5.10;;;29.20;86.50;;;;;;5004181;28;20651;-80
2022/06/20 12:25:38;;;;;;;9.93;4.87;;;29.50;85.80;;;;;;5006891;28;20638;-80
2022/06/20 12:28:18;;;;;;;7.30;4.27;;;29.60;85.70;;;;;;5003829;28;20627;-81
2022/06/20 12:30:46;;;;;;;9.60;4.80;;;29.50;85.40;;;;;;5000062;28;20671;-80
2022/06/20 12:33:14;;;;;;;6.00;4.40;;;29.20;85.40;;;;;;5015277;28;20615;-81
2022/06/20 12:35:46;;;;;;;5.70;4.20;;;29.00;84.90;;;;;;5001486;28;20667;-83
2022/06/20 12:38:19;;;;;;;7.57;5.00;;;28.70;85.50;;;;;;5002507;28;20658;-81
2022/06/20 12:40:49;;;;;;;7.97;5.17;;;28.60;87.10;;;;;;5008881;28;20630;-81
2022/06/20 12:43:20;;;;;;;5.47;4.93;;;28.60;89.70;;;;;;5003707;28;20686;-81
2022/06/20 12:46:01;;;;;;;8.07;5.50;;;28.80;90.10;;;;;;5003327;28;20667;-82
2022/06/20 12:48:41;;;;;;;8.03;5.20;;;29.10;90.10;;;;;;5006382;28;21261;-81
2022/06/20 12:51:16;;;;;;;10.43;5.73;;;29.10;89.40;;;;;;5004554;28;20639;-82
2022/06/20 12:53:59;;;;;;;6.57;5.00;;;29.20;88.80;;;;;;5012082;28;20630;-82
2022/06/20 12:56:39;;;;;;;7.90;5.03;;;29.20;88.70;;;;;;5012603;28;20650;-82
2022/06/20 12:59:37;;;;;;;5.20;4.50;;;29.20;88.80;;;;;;5015459;28;20634;-81
2022/06/20 13:02:12;;;;;;;7.70;5.20;;;29.00;88.30;;;;;;5012946;28;21228;-82
2022/06/20 13:05:18;;;;;;;6.63;4.63;;;28.90;89.20;;;;;;5007149;28;20760;-81
2022/06/20 13:07:59;;;;;;;6.20;4.57;;;28.70;89.60;;;;;;5011262;28;20627;-81
2022/06/20 13:10:43;;;;;;;9.50;5.80;;;28.40;89.80;;;;;;5011750;28;20722;-82
2022/06/20 13:13:34;;;;;;;8.50;5.50;;;28.40;90.50;;;;;;5002281;28;20630;-82
2022/06/20 13:16:12;;;;;;;9.30;5.23;;;28.60;90.50;;;;;;5012513;28;20667;-82
2022/06/20 13:19:26;;;;;;;9.30;5.23;;;28.90;90.10;;;;;;5017518;28;20647;-82
2022/06/20 13:21:58;;;;;;;6.47;4.60;;;29.50;89.50;;;;;;4921448;29;20638;-82
2022/06/20 13:24:39;;;;;;;8.20;4.83;;;29.80;88.10;;;;;;5005087;28;20671;-82
2022/06/20 13:27:28;;;;;;;8.83;5.57;;;30.20;86.80;;;;;;5009927;28;23977;-82
2022/06/20 13:30:03;;;;;;;9.40;4.97;;;30.80;85.20;;;;;;5003881;28;20762;-82
2022/06/20 13:32:36;;;;;;;13.63;4.90;;;31.20;84.50;;;;;;5012043;28;20642;-81